logo
Search for airport 
image banner adimage banner adimage banner ad
image banner ad

CKM5 - Snow Lake

Located in , Canada

ICAO - CKM5, IATA -

Data provided by Airmate  

General information

Coordinates: N54°52'60" W100°1'60"
Elevation is 890 feet MSL.
Magnetic variation is 7° East
View others Airports in Manitoba

Operational data

Special qualification required
Current time UTC:
Current local time:
Weather at : - ( 0 km )
METAR: PAFS 231701Z AUTO 00000KT 9SM BKN070 19/13 A3003 RMK AO2 SLP171 T01890128
View NOTAMs / SUP AIP / TFR affecting this airport [VIEW]
Communications frequencies: [VIEW]

Runways:

RWY identifierQFULength (ft)Width (ft)SurfaceLDA (ft)
W00WATER

Airport contact information

Address: Canada

Satellite view of CKM5